Time;durP1;ratioP1;P1;durP2;ratioP2;P2;SDS_P1;SDS_P2;PMS_P1;PMS_P2;Temp;Humidity;BMP_temperature;BMP_pressure;BME280_temperature;BME280_humidity;BME280_pressure;Samples;Min_cycle;Max_cycle;Signal;HPM_P1;HPM_P2
2024/01/07 00:00:08;;;;;;;;;;;;;;;22.61;26.03;96879.13;5056054;28;1273;-75
2024/01/07 00:02:34;;;;;;;;;;;;;;;22.63;25.93;96881.47;5006550;28;1189;-76
2024/01/07 00:05:01;;;;;;;;;;;;;;;22.75;25.92;96868.34;5039211;28;837;-76
2024/01/07 00:07:27;;;;;;;;;;;;;;;22.77;25.83;96869.44;5023285;28;869;-75
2024/01/07 00:09:52;;;;;;;;;;;;;;;22.75;26.05;96871.97;5056093;28;760;-76
2024/01/07 00:12:18;;;;;;;;;;;;;;;22.48;26.29;96857.91;5022829;28;1079;-75
2024/01/07 00:14:43;;;;;;;;;;;;;;;22.14;26.66;96850.63;5038928;28;1989;-75
2024/01/07 00:17:10;;;;;;;;;;;;;;;21.93;26.91;96853.16;5039193;28;1111;-76
2024/01/07 00:19:37;;;;;;;;;;;;;;;21.91;27.13;96857.72;5039755;28;958;-76
2024/01/07 00:22:03;;;;;;;;;;;;;;;21.89;27.16;96852.53;5075546;28;1058;-75
2024/01/07 00:24:28;;;;;;;;;;;;;;;22.59;26.34;96836.28;5075399;28;800;-75
2024/01/07 00:26:54;;;;;;;;;;;;;;;22.68;26.14;96831.81;5075704;28;749;-76
2024/01/07 00:29:20;;;;;;;;;;;;;;;22.77;26.02;96824.06;5041956;28;1365;-75
2024/01/07 00:31:45;;;;;;;;;;;;;;;22.52;26.21;96807.50;5075496;28;771;-76
2024/01/07 00:34:11;;;;;;;;;;;;;;;22.17;26.79;96833.44;5058495;28;1913;-75
2024/01/07 00:36:37;;;;;;;;;;;;;;;22.34;26.52;96831.84;5042051;28;1129;-75
2024/01/07 00:39:02;;;;;;;;;;;;;;;22.48;26.29;96835.22;5041280;28;1138;-75
2024/01/07 00:41:30;;;;;;;;;;;;;;;22.56;26.20;96833.63;5041984;28;1121;-76
2024/01/07 00:43:55;;;;;;;;;;;;;;;22.58;26.17;96814.84;5058563;28;1114;-76
2024/01/07 00:46:21;;;;;;;;;;;;;;;22.71;25.90;96826.00;5041794;28;1292;-76
2024/01/07 00:48:46;;;;;;;;;;;;;;;22.50;26.37;96838.38;5058385;28;1221;-76
2024/01/07 00:51:12;;;;;;;;;;;;;;;22.41;26.47;96824.25;5058367;28;1277;-76
2024/01/07 00:53:38;;;;;;;;;;;;;;;22.22;26.61;96824.31;5075065;28;809;-75
2024/01/07 00:56:03;;;;;;;;;;;;;;;22.34;26.47;96828.22;5044245;28;1910;-75
2024/01/07 00:58:29;;;;;;;;;;;;;;;22.40;26.55;96822.69;5079050;28;774;-75
2024/01/07 01:00:55;;;;;;;;;;;;;;;22.60;26.22;96820.06;5062556;28;1077;-75
2024/01/07 01:03:20;;;;;;;;;;;;;;;22.77;25.85;96814.78;5096918;28;706;-75
2024/01/07 01:05:46;;;;;;;;;;;;;;;22.73;25.93;96805.66;5097579;28;730;-76
2024/01/07 01:08:11;;;;;;;;;;;;;;;22.40;26.24;96814.19;5062412;28;1145;-76
2024/01/07 01:10:37;;;;;;;;;;;;;;;22.27;26.50;96820.81;5079155;28;877;-75
2024/01/07 01:13:03;;;;;;;;;;;;;;;22.43;26.20;96799.03;5062211;28;1245;-75
2024/01/07 01:15:28;;;;;;;;;;;;;;;22.21;26.33;96800.06;5079174;28;1902;-76
2024/01/07 01:17:54;;;;;;;;;;;;;;;22.41;26.41;96801.56;5078744;28;1240;-76
2024/01/07 01:20:20;;;;;;;;;;;;;;;22.80;25.82;96806.09;5078949;28;1504;-75
2024/01/07 01:22:46;;;;;;;;;;;;;;;22.61;26.36;96787.63;5062493;28;1075;-76
2024/01/07 01:25:12;;;;;;;;;;;;;;;22.72;26.10;96775.72;5079058;28;739;-76
2024/01/07 01:27:37;;;;;;;;;;;;;;;22.59;26.35;96764.63;5057777;28;1181;-75
2024/01/07 01:30:03;;;;;;;;;;;;;;;22.44;26.61;96772.28;5058117;28;794;-75
2024/01/07 01:32:28;;;;;;;;;;;;;;;22.27;26.72;96774.69;5041217;28;1090;-76
2024/01/07 01:34:54;;;;;;;;;;;;;;;22.35;26.63;96765.38;5033981;28;1913;-76
2024/01/07 01:37:20;;;;;;;;;;;;;;;22.27;26.80;96775.47;5018036;28;1161;-75
2024/01/07 01:39:45;;;;;;;;;;;;;;;22.44;26.64;96783.63;5034255;28;1004;-76
2024/01/07 01:42:11;;;;;;;;;;;;;;;22.63;26.10;96785.06;5018092;28;807;-76
2024/01/07 01:44:37;;;;;;;;;;;;;;;22.60;26.35;96791.72;5034064;28;1421;-75
2024/01/07 01:47:02;;;;;;;;;;;;;;;22.63;26.29;96785.06;5001390;28;1237;-76
2024/01/07 01:49:28;;;;;;;;;;;;;;;22.49;26.11;96774.47;5017673;28;1238;-75
2024/01/07 01:51:53;;;;;;;;;;;;;;;22.40;26.37;96783.78;5017781;28;1246;-76
2024/01/07 01:54:19;;;;;;;;;;;;;;;22.24;26.83;96782.13;5001387;28;1965;-73
2024/01/07 01:56:45;;;;;;;;;;;;;;;22.09;26.68;96772.72;5017756;28;1205;-74
2024/01/07 01:59:11;;;;;;;;;;;;;;;21.80;27.15;96774.06;5032128;28;902;-73
2024/01/07 02:01:37;;;;;;;;;;;;;;;22.29;26.85;96767.31;5037563;28;822;-73
2024/01/07 02:04:02;;;;;;;;;;;;;;;22.31;26.68;96770.44;5021092;28;1722;-74
2024/01/07 02:06:28;;;;;;;;;;;;;;;22.44;26.61;96767.41;5053895;28;882;-74
2024/01/07 02:08:54;;;;;;;;;;;;;;;22.66;26.05;96766.31;5020868;28;1928;-73
2024/01/07 02:11:20;;;;;;;;;;;;;;;22.68;25.93;96764.56;5020932;28;1210;-73
2024/01/07 02:13:46;;;;;;;;;;;;;;;22.23;26.61;96766.41;5037263;28;1140;-74
2024/01/07 02:16:11;;;;;;;;;;;;;;;22.23;26.70;96769.22;5067870;28;1914;-74
2024/01/07 02:18:43;;;;;;;;;;;;;;;22.14;26.90;96779.81;5078180;28;723;-73
2024/01/07 02:21:09;;;;;;;;;;;;;;;22.08;26.94;96762.66;5061664;28;730;-73
2024/01/07 02:23:35;;;;;;;;;;;;;;;22.61;26.13;96764.94;5078268;28;1132;-73
2024/01/07 02:26:00;;;;;;;;;;;;;;;22.71;26.00;96754.31;5096280;28;749;-73
2024/01/07 02:28:26;;;;;;;;;;;;;;;22.51;26.18;96760.59;5061300;28;1116;-73
2024/01/07 02:30:52;;;;;;;;;;;;;;;22.45;26.27;96762.50;5077943;28;1059;-74
2024/01/07 02:33:17;;;;;;;;;;;;;;;22.35;26.33;96758.94;5096309;28;781;-73
2024/01/07 02:35:43;;;;;;;;;;;;;;;21.91;27.01;96764.28;5061333;28;1906;-73
2024/01/07 02:38:08;;;;;;;;;;;;;;;22.53;26.44;96753.16;5077952;28;731;-74
2024/01/07 02:40:34;;;;;;;;;;;;;;;22.57;26.30;96753.75;5061488;28;802;-74
2024/01/07 02:42:59;;;;;;;;;;;;;;;22.30;26.60;96763.22;5077856;28;758;-74
2024/01/07 02:45:25;;;;;;;;;;;;;;;22.57;26.16;96770.78;5096066;28;782;-74
2024/01/07 02:47:51;;;;;;;;;;;;;;;22.47;26.28;96771.31;5061364;28;1371;-73
2024/01/07 02:50:16;;;;;;;;;;;;;;;22.43;26.28;96777.13;5095862;28;750;-73
2024/01/07 02:52:42;;;;;;;;;;;;;;;22.04;26.97;96762.03;5077820;28;810;-73
2024/01/07 02:55:08;;;;;;;;;;;;;;;22.01;26.87;96751.66;5077729;28;1968;-73
2024/01/07 02:57:33;;;;;;;;;;;;;;;21.97;27.03;96756.72;5077692;28;1125;-74
2024/01/07 02:59:59;;;;;;;;;;;;;;;22.19;26.78;96756.50;5061098;28;1221;-73
2024/01/07 03:02:25;;;;;;;;;;;;;;;22.68;26.18;96746.75;5080412;28;916;-75
2024/01/07 03:04:50;;;;;;;;;;;;;;;22.54;26.36;96748.28;5081681;28;747;-74
2024/01/07 03:07:16;;;;;;;;;;;;;;;22.52;26.27;96745.13;5064930;28;1279;-73
2024/01/07 03:09:41;;;;;;;;;;;;;;;22.68;26.14;96746.75;5080358;28;956;-73
2024/01/07 03:12:07;;;;;;;;;;;;;;;22.61;26.13;96743.03;5064586;28;1170;-73
2024/01/07 03:14:32;;;;;;;;;;;;;;;22.41;26.35;96744.88;5064662;28;1902;-73
2024/01/07 03:16:58;;;;;;;;;;;;;;;21.98;26.78;96746.94;5064697;28;1178;-73
2024/01/07 03:19:23;;;;;;;;;;;;;;;22.16;26.93;96741.22;5080963;28;761;-73
2024/01/07 03:21:49;;;;;;;;;;;;;;;22.58;26.23;96731.88;5099138;28;754;-73
2024/01/07 03:24:15;;;;;;;;;;;;;;;22.67;26.08;96740.31;5064628;28;1241;-74
2024/01/07 03:26:40;;;;;;;;;;;;;;;22.73;26.01;96734.75;5064116;28;781;-73
2024/01/07 03:29:06;;;;;;;;;;;;;;;22.65;26.19;96734.34;5081164;28;929;-73
2024/01/07 03:31:31;;;;;;;;;;;;;;;22.49;26.19;96746.13;5059596;28;828;-73
2024/01/07 03:33:57;;;;;;;;;;;;;;;22.16;26.72;96740.44;5043245;28;1231;-73
2024/01/07 03:36:22;;;;;;;;;;;;;;;22.19;26.68;96734.63;5076446;28;1909;-74
2024/01/07 03:38:48;;;;;;;;;;;;;;;22.24;26.79;96736.78;5059984;28;1107;-73
2024/01/07 03:41:20;;;;;;;;;;;;;;;22.43;26.55;96731.00;5059835;28;1113;-73
2024/01/07 03:43:48;;;;;;;;;;;;;;;22.48;26.46;96721.84;5043543;28;1184;-74
2024/01/07 03:46:14;;;;;;;;;;;;;;;22.45;26.17;96700.16;5060076;28;805;-74
2024/01/07 03:48:40;;;;;;;;;;;;;;;22.20;26.92;96716.34;5059782;28;822;-73
2024/01/07 03:51:06;;;;;;;;;;;;;;;22.55;26.05;96710.94;5042935;28;1251;-74
2024/01/07 03:53:32;;;;;;;;;;;;;;;22.36;26.41;96704.59;5059616;28;857;-73
2024/01/07 03:55:57;;;;;;;;;;;;;;;22.47;26.05;96708.94;5058976;28;2398;-73
2024/01/07 03:58:23;;;;;;;;;;;;;;;22.14;26.72;96703.31;5042548;28;883;-73
2024/01/07 04:00:48;;;;;;;;;;;;;;;22.38;26.23;96700.50;5059526;28;1256;-73
2024/01/07 04:03:14;;;;;;;;;;;;;;;21.84;27.16;96709.53;5059325;28;1126;-73
2024/01/07 04:05:39;;;;;;;;;;;;;;;22.12;27.03;96711.50;5076142;28;750;-73
2024/01/07 04:08:05;;;;;;;;;;;;;;;22.38;26.29;96700.50;5075798;28;793;-73
2024/01/07 04:10:31;;;;;;;;;;;;;;;22.79;26.02;96708.09;5075697;28;868;-73
2024/01/07 04:12:56;;;;;;;;;;;;;;;22.63;26.22;96702.84;5041235;28;1303;-73
2024/01/07 04:15:22;;;;;;;;;;;;;;;22.48;26.11;96710.50;5058783;28;1902;-73
2024/01/07 04:17:47;;;;;;;;;;;;;;;22.47;26.12;96711.78;5059095;28;1187;-73
2024/01/07 04:20:13;;;;;;;;;;;;;;;21.63;27.41;96716.22;5058827;28;737;-73
2024/01/07 04:22:38;;;;;;;;;;;;;;;22.24;26.59;96719.78;5059091;28;1126;-73
2024/01/07 04:25:08;;;;;;;;;;;;;;;22.46;26.46;96707.38;5058878;28;1059;-73
2024/01/07 04:27:36;;;;;;;;;;;;;;;22.55;26.10;96713.00;5058847;28;1184;-73
2024/01/07 04:30:02;;;;;;;;;;;;;;;22.48;26.40;96710.50;5058861;28;1106;-74
2024/01/07 04:32:27;;;;;;;;;;;;;;;22.54;26.37;96708.59;5058872;28;1107;-74
2024/01/07 04:34:53;;;;;;;;;;;;;;;22.66;25.87;96710.41;5075447;28;1980;-74
2024/01/07 04:37:18;;;;;;;;;;;;;;;22.45;26.32;96705.81;5058318;28;1075;-73
2024/01/07 04:39:44;;;;;;;;;;;;;;;22.19;26.43;96700.63;5044759;28;1460;-73
2024/01/07 04:42:09;;;;;;;;;;;;;;;22.07;26.47;96693.06;5079642;28;747;-74
2024/01/07 04:44:35;;;;;;;;;;;;;;;22.19;26.78;96705.50;5079747;28;957;-74
2024/01/07 04:47:01;;;;;;;;;;;;;;;22.50;26.37;96685.31;5062956;28;1391;-74
2024/01/07 04:49:26;;;;;;;;;;;;;;;22.51;26.06;96681.22;5079390;28;851;-74
2024/01/07 04:51:52;;;;;;;;;;;;;;;22.65;25.99;96677.66;5097543;28;936;-74
2024/01/07 04:54:18;;;;;;;;;;;;;;;22.73;25.96;96681.66;5062849;28;1968;-74
2024/01/07 04:56:44;;;;;;;;;;;;;;;22.31;26.48;96667.63;5062913;28;937;-73
2024/01/07 04:59:09;;;;;;;;;;;;;;;22.25;26.26;96676.03;5097294;28;949;-74
2024/01/07 05:01:35;;;;;;;;;;;;;;;22.05;26.36;96682.22;5037892;28;1212;-73
2024/01/07 05:04:01;;;;;;;;;;;;;;;22.23;26.36;96672.91;5054792;28;1073;-73
2024/01/07 05:06:27;;;;;;;;;;;;;;;22.72;25.97;96667.97;5018256;28;1241;-73
2024/01/07 05:08:52;;;;;;;;;;;;;;;22.86;25.55;96668.03;5018345;28;1112;-73
2024/01/07 05:11:18;;;;;;;;;;;;;;;22.62;25.90;96664.44;5001696;28;1372;-74
2024/01/07 05:13:44;;;;;;;;;;;;;;;22.52;26.11;96662.94;5034527;28;1205;-73
2024/01/07 05:16:09;;;;;;;;;;;;;;;21.73;27.01;96663.19;5014787;28;1914;-74
2024/01/07 05:18:35;;;;;;;;;;;;;;;22.21;26.56;96661.25;4995448;28;1405;-75
2024/01/07 05:21:00;;;;;;;;;;;;;;;22.10;26.45;96663.81;4982385;28;1100;-75
2024/01/07 05:23:26;;;;;;;;;;;;;;;22.22;26.47;96657.13;5014495;28;987;-74
2024/01/07 05:25:51;;;;;;;;;;;;;;;22.42;26.22;96656.53;5014182;28;1045;-75
2024/01/07 05:28:20;;;;;;;;;;;;;;;22.60;25.76;96653.59;5014790;28;967;-75
2024/01/07 05:30:46;;;;;;;;;;;;;;;22.54;25.98;96646.25;5002670;28;1647;-76
2024/01/07 05:33:12;;;;;;;;;;;;;;;22.69;25.71;96635.72;4995042;28;1010;-75
2024/01/07 05:35:37;;;;;;;;;;;;;;;22.21;26.42;96635.75;4956191;28;1902;-76
2024/01/07 05:38:03;;;;;;;;;;;;;;;22.32;26.27;96630.31;4940231;29;1195;-75
2024/01/07 05:40:28;;;;;;;;;;;;;;;22.41;26.02;96631.53;4955875;28;1068;-76
2024/01/07 05:42:54;;;;;;;;;;;;;;;22.15;26.39;96626.34;4957535;28;923;-75
2024/01/07 05:45:20;;;;;;;;;;;;;;;22.44;26.00;96631.34;4959498;28;1194;-76
2024/01/07 05:47:45;;;;;;;;;;;;;;;22.69;25.85;96626.41;5004627;28;954;-75
2024/01/07 05:50:11;;;;;;;;;;;;;;;22.95;25.45;96629.50;5014668;28;914;-75
2024/01/07 05:52:37;;;;;;;;;;;;;;;22.60;25.78;96624.44;4982015;28;969;-76
2024/01/07 05:55:02;;;;;;;;;;;;;;;22.49;25.84;96629.91;5012847;28;1906;-75
2024/01/07 05:57:28;;;;;;;;;;;;;;;22.57;25.78;96628.25;4978369;28;1100;-76
2024/01/07 05:59:54;;;;;;;;;;;;;;;22.33;25.93;96626.22;4978396;28;1293;-75
2024/01/07 06:02:21;;;;;;;;;;;;;;;22.15;26.33;96606.50;4978329;28;925;-76
2024/01/07 06:04:46;;;;;;;;;;;;;;;22.53;26.14;96613.47;4978412;28;1238;-75
2024/01/07 06:07:12;;;;;;;;;;;;;;;22.72;25.68;96611.28;4978155;28;1637;-75
2024/01/07 06:09:37;;;;;;;;;;;;;;;22.86;25.24;96616.19;4978039;28;1125;-76
2024/01/07 06:12:03;;;;;;;;;;;;;;;22.80;25.48;96599.06;4998384;28;1113;-75
2024/01/07 06:14:29;;;;;;;;;;;;;;;22.82;25.63;96604.25;5033859;28;1957;-76
2024/01/07 06:16:55;;;;;;;;;;;;;;;22.49;25.81;96599.50;5014010;28;1357;-75
2024/01/07 06:19:20;;;;;;;;;;;;;;;22.34;25.80;96593.78;4981439;28;1116;-75
2024/01/07 06:21:46;;;;;;;;;;;;;;;22.19;26.28;96592.19;4997376;28;936;-75
2024/01/07 06:24:12;;;;;;;;;;;;;;;22.19;26.36;96592.19;4997835;28;1180;-76
2024/01/07 06:26:37;;;;;;;;;;;;;;;22.56;25.98;96587.00;4981611;28;1049;-76
2024/01/07 06:29:03;;;;;;;;;;;;;;;22.60;25.71;96576.25;5012309;28;1167;-75
2024/01/07 06:31:28;;;;;;;;;;;;;;;22.70;25.77;96586.25;5033584;28;1162;-76
2024/01/07 06:33:57;;;;;;;;;;;;;;;22.66;25.82;96588.47;5033621;28;1028;-75
2024/01/07 06:36:23;;;;;;;;;;;;;;;22.21;26.44;96589.63;5033843;28;1902;-75
2024/01/07 06:38:49;;;;;;;;;;;;;;;22.34;25.98;96587.34;5037350;28;1218;-75
2024/01/07 06:41:14;;;;;;;;;;;;;;;22.32;25.92;96599.13;5037459;28;942;-76
2024/01/07 06:43:40;;;;;;;;;;;;;;;22.39;26.29;96608.56;5037102;28;1086;-75
2024/01/07 06:46:06;;;;;;;;;;;;;;;22.67;25.76;96581.53;5037537;28;992;-76
2024/01/07 06:48:31;;;;;;;;;;;;;;;22.51;26.04;96579.16;5036913;28;954;-76
2024/01/07 06:50:57;;;;;;;;;;;;;;;22.71;25.85;96570.00;5037138;28;961;-75
2024/01/07 06:53:23;;;;;;;;;;;;;;;22.52;25.86;96558.06;5039219;28;924;-76
2024/01/07 06:55:48;;;;;;;;;;;;;;;22.23;26.23;96559.56;5059343;28;1914;-75
2024/01/07 06:58:14;;;;;;;;;;;;;;;22.32;26.11;96539.63;5074769;28;1431;-76
2024/01/07 07:00:39;;;;;;;;;;;;;;;22.25;25.77;96540.00;5056715;28;1243;-75
2024/01/07 07:03:05;;;;;;;;;;;;;;;21.84;26.76;96533.22;5023834;28;1219;-76
2024/01/07 07:05:31;;;;;;;;;;;;;;;22.48;25.91;96523.44;5056655;28;994;-76
2024/01/07 07:07:57;;;;;;;;;;;;;;;22.54;25.85;96498.84;5023942;28;1155;-75
2024/01/07 07:10:23;;;;;;;;;;;;;;;22.66;25.49;96500.59;5056929;28;954;-76
2024/01/07 07:12:50;;;;;;;;;;;;;;;22.61;25.95;96498.44;5040309;28;995;-76
2024/01/07 07:15:16;;;;;;;;;;;;;;;22.68;25.47;96495.19;5040516;28;1914;-75
2024/01/07 07:17:42;;;;;;;;;;;;;;;22.57;25.65;96483.69;5023731;28;1177;-75
2024/01/07 07:20:07;;;;;;;;;;;;;;;22.30;25.74;96474.19;5039994;28;945;-75
2024/01/07 07:22:33;;;;;;;;;;;;;;;22.04;26.15;96453.31;5020033;28;1288;-76
2024/01/07 07:24:59;;;;;;;;;;;;;;;22.29;26.21;96449.94;5020350;28;939;-76
2024/01/07 07:27:24;;;;;;;;;;;;;;;22.64;25.61;96435.09;5036550;28;893;-75
2024/01/07 07:29:50;;;;;;;;;;;;;;;22.50;25.87;96433.06;5036445;28;1010;-76
2024/01/07 07:32:15;;;;;;;;;;;;;;;22.68;25.68;96427.16;5035033;28;939;-76
2024/01/07 07:34:41;;;;;;;;;;;;;;;22.49;25.81;96440.78;5059414;28;1984;-76
2024/01/07 07:37:06;;;;;;;;;;;;;;;22.34;25.92;96434.31;5059604;28;1304;-76
2024/01/07 07:39:32;;;;;;;;;;;;;;;22.17;26.10;96434.00;5059719;28;1028;-75
2024/01/07 07:41:58;;;;;;;;;;;;;;;22.22;26.14;96441.81;5043121;28;909;-75
2024/01/07 07:44:26;;;;;;;;;;;;;;;22.28;26.39;96437.06;5059825;28;1020;-75
2024/01/07 07:46:51;;;;;;;;;;;;;;;22.55;25.73;96455.03;5042852;28;970;-76
2024/01/07 07:49:17;;;;;;;;;;;;;;;22.75;25.58;96486.31;5058893;28;1026;-75
2024/01/07 07:51:43;;;;;;;;;;;;;;;22.70;25.55;96484.19;5042859;28;1258;-76
2024/01/07 07:54:09;;;;;;;;;;;;;;;22.58;25.72;96502.25;5044318;28;971;-76
2024/01/07 07:56:35;;;;;;;;;;;;;;;22.30;25.97;96501.72;5022987;28;1662;-75
2024/01/07 07:59:01;;;;;;;;;;;;;;;22.26;25.89;96489.78;5055743;28;985;-76
2024/01/07 08:01:27;;;;;;;;;;;;;;;22.31;26.10;96495.56;5039564;28;1012;-75
2024/01/07 08:03:53;;;;;;;;;;;;;;;22.44;25.80;96483.19;5038937;28;951;-75
2024/01/07 08:06:18;;;;;;;;;;;;;;;22.58;25.91;96479.56;5052021;28;1037;-75
2024/01/07 08:08:45;;;;;;;;;;;;;;;22.95;25.25;96467.84;5057039;28;985;-76
2024/01/07 08:11:10;;;;;;;;;;;;;;;22.50;25.74;96464.22;5055778;28;971;-75
2024/01/07 08:13:37;;;;;;;;;;;;;;;22.28;26.14;96459.72;5056894;28;967;-75
2024/01/07 08:16:03;;;;;;;;;;;;;;;22.38;25.96;96446.22;5039923;28;1993;-75
2024/01/07 08:18:28;;;;;;;;;;;;;;;22.09;26.44;96452.63;5072903;28;986;-75
2024/01/07 08:20:54;;;;;;;;;;;;;;;22.12;26.40;96460.16;5073018;28;888;-75
2024/01/07 08:23:20;;;;;;;;;;;;;;;22.54;25.97;96459.16;5056559;28;929;-76
2024/01/07 08:25:46;;;;;;;;;;;;;;;22.63;25.56;96461.88;5057448;28;1033;-75
2024/01/07 08:28:11;;;;;;;;;;;;;;;22.68;25.85;96469.69;5056474;28;1225;-76
2024/01/07 08:30:37;;;;;;;;;;;;;;;22.41;25.85;96467.16;5056391;28;1132;-75
2024/01/07 08:33:03;;;;;;;;;;;;;;;21.92;26.70;96465.69;5072901;28;922;-76
2024/01/07 08:35:28;;;;;;;;;;;;;;;22.22;25.98;96472.19;5054860;28;1984;-76
2024/01/07 08:37:54;;;;;;;;;;;;;;;22.19;26.21;96462.63;5005632;28;1184;-75
2024/01/07 08:40:19;;;;;;;;;;;;;;;22.32;26.25;96482.97;5055078;28;1076;-76
2024/01/07 08:42:45;;;;;;;;;;;;;;;22.68;25.39;96485.91;5022109;28;962;-75
2024/01/07 08:45:11;;;;;;;;;;;;;;;22.79;25.37;96475.53;5021899;28;1276;-76
2024/01/07 08:47:36;;;;;;;;;;;;;;;22.67;25.49;96479.47;5038265;28;1164;-76
2024/01/07 08:50:03;;;;;;;;;;;;;;;22.50;25.90;96467.06;5001974;28;1113;-75
2024/01/07 08:52:28;;;;;;;;;;;;;;;22.35;26.11;96459.31;5018812;28;1121;-75
2024/01/07 08:54:55;;;;;;;;;;;;;;;22.40;25.56;96451.44;5001904;28;1907;-76
2024/01/07 08:57:20;;;;;;;;;;;;;;;22.28;26.18;96454.06;5002344;28;1224;-76
2024/01/07 08:59:46;;;;;;;;;;;;;;;22.59;25.85;96478.31;4998103;28;1076;-75
2024/01/07 09:02:12;;;;;;;;;;;;;;;22.67;25.76;96451.13;4998819;28;1231;-76
2024/01/07 09:04:37;;;;;;;;;;;;;;;22.65;25.63;96436.66;5014769;28;1083;-75
2024/01/07 09:07:03;;;;;;;;;;;;;;;22.71;25.32;96434.69;4998817;28;1064;-75
2024/01/07 09:09:29;;;;;;;;;;;;;;;22.24;26.09;96425.13;4998622;28;1002;-76
2024/01/07 09:11:56;;;;;;;;;;;;;;;22.19;25.92;96428.63;4975905;28;988;-75
2024/01/07 09:14:22;;;;;;;;;;;;;;;22.28;25.75;96425.72;4959444;28;1906;-76
2024/01/07 09:16:47;;;;;;;;;;;;;;;22.19;26.15;96427.88;4975654;28;979;-76
2024/01/07 09:19:13;;;;;;;;;;;;;;;22.45;26.01;96445.06;4975467;28;976;-76
2024/01/07 09:21:38;;;;;;;;;;;;;;;22.69;25.66;96439.28;4975495;28;1069;-76
2024/01/07 09:24:04;;;;;;;;;;;;;;;22.62;25.55;96427.06;4959677;28;968;-76
2024/01/07 09:26:30;;;;;;;;;;;;;;;22.71;25.71;96414.06;4959634;28;968;-76
2024/01/07 09:28:56;;;;;;;;;;;;;;;22.03;26.35;96406.41;4959897;28;987;-75
2024/01/07 09:31:22;;;;;;;;;;;;;;;22.26;25.87;96416.91;5003242;28;997;-76
2024/01/07 09:33:47;;;;;;;;;;;;;;;22.30;25.84;96417.50;5017552;28;945;-75
2024/01/07 09:36:13;;;;;;;;;;;;;;;22.32;26.24;96406.44;5001505;28;1902;-76
2024/01/07 09:38:39;;;;;;;;;;;;;;;22.63;25.63;96393.84;5017628;28;982;-76
2024/01/07 09:41:05;;;;;;;;;;;;;;;22.58;25.62;96405.84;5034428;28;1056;-76
2024/01/07 09:43:31;;;;;;;;;;;;;;;22.46;25.74;96396.41;5028600;28;1142;-75
2024/01/07 09:45:56;;;;;;;;;;;;;;;22.68;25.41;96378.97;5072003;28;894;-76
2024/01/07 09:48:22;;;;;;;;;;;;;;;22.87;25.48;96385.97;5054667;28;1010;-75
2024/01/07 09:50:47;;;;;;;;;;;;;;;22.92;25.13;96398.72;5053758;28;996;-76
2024/01/07 09:53:18;;;;;;;;;;;;;;;22.73;25.23;96420.81;5037536;28;1171;-75
2024/01/07 09:55:47;;;;;;;;;;;;;;;22.18;26.17;96415.75;5037556;28;1895;-75
2024/01/07 09:58:13;;;;;;;;;;;;;;;22.32;25.98;96414.19;5037387;28;955;-76
2024/01/07 10:00:39;;;;;;;;;;;;;;;22.04;26.50;96422.16;5037558;28;995;-76
2024/01/07 10:03:05;;;;;;;;;;;;;;;22.05;26.63;96423.69;5004824;28;1278;-76
2024/01/07 10:05:31;;;;;;;;;;;;;;;22.47;25.94;96422.69;5037338;28;1009;-76
2024/01/07 10:07:57;;;;;;;;;;;;;;;22.44;25.75;96421.63;5020739;28;979;-75
2024/01/07 10:10:23;;;;;;;;;;;;;;;22.59;25.90;96396.09;5053731;28;975;-76
2024/01/07 10:12:48;;;;;;;;;;;;;;;22.69;25.59;96394.72;5037043;28;991;-75
2024/01/07 10:15:14;;;;;;;;;;;;;;;22.27;26.25;96395.81;5038043;28;1972;-76
2024/01/07 10:17:42;;;;;;;;;;;;;;;22.18;26.39;96386.66;5004969;28;973;-75
2024/01/07 10:20:10;;;;;;;;;;;;;;;22.17;26.32;96380.16;5021535;28;954;-76
2024/01/07 10:22:39;;;;;;;;;;;;;;;22.29;25.92;96376.28;5037922;28;1367;-75
2024/01/07 10:25:05;;;;;;;;;;;;;;;22.49;26.02;96371.97;5041308;28;921;-75
2024/01/07 10:27:33;;;;;;;;;;;;;;;22.79;25.35;96370.63;5024365;28;1230;-75
2024/01/07 10:29:59;;;;;;;;;;;;;;;22.71;25.42;96360.97;5024321;28;935;-76
2024/01/07 10:32:24;;;;;;;;;;;;;;;22.68;25.54;96349.84;5062597;28;1663;-76
2024/01/07 10:34:50;;;;;;;;;;;;;;;22.62;25.38;96359.03;5077691;28;1969;-75
2024/01/07 10:37:15;;;;;;;;;;;;;;;22.38;25.75;96354.75;5052751;28;1596;-76
2024/01/07 10:39:41;;;;;;;;;;;;;;;22.22;25.75;96359.66;5037401;28;1577;-75
2024/01/07 10:42:07;;;;;;;;;;;;;;;22.33;25.94;96354.19;5039823;28;1681;-76
2024/01/07 10:44:32;;;;;;;;;;;;;;;22.64;25.66;96361.41;5044013;28;1615;-75
2024/01/07 10:46:58;;;;;;;;;;;;;;;22.79;25.50;96350.00;5001432;28;1009;-76
2024/01/07 10:49:25;;;;;;;;;;;;;;;22.68;25.48;96344.94;5017583;28;1047;-75
2024/01/07 10:51:56;;;;;;;;;;;;;;;22.77;25.42;96342.00;5006294;28;1518;-76
2024/01/07 10:54:22;;;;;;;;;;;;;;;22.55;25.54;96324.66;5013074;28;2070;-76
2024/01/07 10:56:48;;;;;;;;;;;;;;;22.31;25.83;96319.88;5010428;28;1450;-76
2024/01/07 10:59:14;;;;;;;;;;;;;;;22.17;25.90;96312.19;5009897;28;1572;-76
2024/01/07 11:01:39;;;;;;;;;;;;;;;22.36;25.72;96313.53;5019790;28;1576;-75
2024/01/07 11:04:25;;;;;;;;;;;;;;;22.60;25.50;96304.13;5000458;28;1644;-75
2024/01/07 11:06:52;;;;;;;;;;;;;;;22.86;25.50;96299.34;5016826;28;1472;-76
2024/01/07 11:09:27;;;;;;;;;;;;;;;22.69;25.38;96295.50;5000070;28;1731;-76
2024/01/07 11:11:52;;;;;;;;;;;;;;;22.75;25.58;96287.06;4999193;28;1650;-75
2024/01/07 11:14:39;;;;;;;;;;;;;;;22.43;25.81;96283.22;5000418;28;1898;-76
2024/01/07 11:17:06;;;;;;;;;;;;;;;22.28;26.00;96278.38;5016711;28;1565;-76
2024/01/07 11:19:31;;;;;;;;;;;;;;;22.08;26.55;96266.97;5003602;28;1459;-76
2024/01/07 11:22:17;;;;;;;;;;;;;;;21.82;27.00;96247.75;5036167;28;1323;-76
2024/01/07 11:24:43;;;;;;;;;;;;;;;22.52;25.91;96241.38;4977451;28;1510;-75
2024/01/07 11:27:08;;;;;;;;;;;;;;;22.65;25.81;96232.53;4961698;28;976;-75
2024/01/07 11:29:35;;;;;;;;;;;;;;;22.54;25.83;96229.56;4977532;28;1027;-76
2024/01/07 11:32:00;;;;;;;;;;;;;;;22.60;25.78;96238.91;4961413;28;1083;-75
2024/01/07 11:34:39;;;;;;;;;;;;;;;22.41;26.00;96234.78;4982259;28;1989;-76
2024/01/07 11:37:05;;;;;;;;;;;;;;;22.15;26.31;96235.41;5009103;28;1236;-75
2024/01/07 11:39:31;;;;;;;;;;;;;;;22.01;26.44;96247.50;5013356;28;999;-75
2024/01/07 11:41:56;;;;;;;;;;;;;;;22.20;26.62;96259.44;5013277;28;968;-76
2024/01/07 11:44:22;;;;;;;;;;;;;;;22.71;25.79;96256.06;5013299;28;1099;-75
2024/01/07 11:46:48;;;;;;;;;;;;;;;22.80;25.35;96249.50;4997054;28;1232;-75
2024/01/07 11:49:15;;;;;;;;;;;;;;;22.72;25.67;96254.78;4977201;28;1227;-75
2024/01/07 11:51:40;;;;;;;;;;;;;;;22.73;25.87;96247.06;4993315;28;1025;-75
2024/01/07 11:54:07;;;;;;;;;;;;;;;22.31;26.32;96249.06;4977492;28;942;-76
2024/01/07 11:56:34;;;;;;;;;;;;;;;22.39;26.11;96248.66;4977850;28;1906;-76
2024/01/07 11:59:00;;;;;;;;;;;;;;;22.35;25.88;96241.13;4993940;28;1261;-76
2024/01/07 12:01:26;;;;;;;;;;;;;;;21.64;26.88;96230.94;4984120;28;1221;-76
2024/01/07 12:03:51;;;;;;;;;;;;;;;22.28;26.48;96233.06;5010469;28;1042;-76
2024/01/07 12:06:18;;;;;;;;;;;;;;;22.55;26.00;96222.63;4997118;28;1579;-76
2024/01/07 12:08:43;;;;;;;;;;;;;;;22.74;25.38;96215.41;4976743;28;1559;-76
2024/01/07 12:11:12;;;;;;;;;;;;;;;22.76;25.67;96227.03;4952621;28;1662;-76
2024/01/07 12:13:38;;;;;;;;;;;;;;;22.52;25.79;96230.03;4937349;28;1517;-76
2024/01/07 12:16:07;;;;;;;;;;;;;;;22.53;25.78;96230.81;4960676;28;1902;-76
2024/01/07 12:18:33;;;;;;;;;;;;;;;22.19;26.07;96235.22;4976830;28;1503;-76
2024/01/07 12:20:59;;;;;;;;;;;;;;;22.01;26.76;96241.84;4952632;28;1504;-76
2024/01/07 12:23:25;;;;;;;;;;;;;;;22.19;26.25;96241.66;4976473;28;1492;-76
2024/01/07 12:25:51;;;;;;;;;;;;;;;22.56;25.84;96241.19;4967461;28;1694;-75
2024/01/07 12:28:18;;;;;;;;;;;;;;;22.81;25.52;96246.16;4983399;28;1108;-75
2024/01/07 12:30:44;;;;;;;;;;;;;;;22.69;25.92;96249.31;4999783;28;902;-76
2024/01/07 12:33:09;;;;;;;;;;;;;;;22.23;26.54;96247.91;4963496;28;1235;-76
2024/01/07 12:35:35;;;;;;;;;;;;;;;22.45;26.09;96252.34;4966526;28;1995;-75
2024/01/07 12:38:01;;;;;;;;;;;;;;;22.24;26.40;96243.81;4999313;28;967;-75
2024/01/07 12:40:27;;;;;;;;;;;;;;;21.97;26.91;96246.94;5030866;28;1018;-75
2024/01/07 12:42:52;;;;;;;;;;;;;;;22.25;26.45;96245.38;5055605;28;977;-75
2024/01/07 12:45:18;;;;;;;;;;;;;;;22.75;25.71;96245.31;5015477;28;1748;-75
2024/01/07 12:47:44;;;;;;;;;;;;;;;22.68;25.94;96245.72;4999572;28;1243;-75
2024/01/07 12:50:09;;;;;;;;;;;;;;;22.72;25.74;96248.34;5015302;28;984;-76
2024/01/07 12:52:39;;;;;;;;;;;;;;;22.43;25.95;96254.88;5015806;28;1048;-75